sensor_id;sensor_type;location;lat;lon;timestamp;P1;durP1;ratioP1;P2;durP2;ratioP2
67997;SDS011;54773;53.388;-1.504;2023-07-28T00:01:14;4.83;;;2.47;;
67997;SDS011;54773;53.388;-1.504;2023-07-28T00:03:58;5.25;;;2.90;;
67997;SDS011;54773;53.388;-1.504;2023-07-28T00:06:50;4.35;;;2.60;;
67997;SDS011;54773;53.388;-1.504;2023-07-28T00:09:38;4.15;;;2.30;;
67997;SDS011;54773;53.388;-1.504;2023-07-28T00:12:22;5.63;;;2.45;;
67997;SDS011;54773;53.388;-1.504;2023-07-28T00:15:06;5.20;;;2.30;;
67997;SDS011;54773;53.388;-1.504;2023-07-28T00:17:50;7.22;;;2.60;;
67997;SDS011;54773;53.388;-1.504;2023-07-28T00:20:34;4.35;;;2.50;;
67997;SDS011;54773;53.388;-1.504;2023-07-28T00:23:18;4.88;;;2.38;;
67997;SDS011;54773;53.388;-1.504;2023-07-28T00:26:02;4.13;;;2.28;;
67997;SDS011;54773;53.388;-1.504;2023-07-28T00:28:45;6.00;;;2.60;;
67997;SDS011;54773;53.388;-1.504;2023-07-28T00:31:29;6.70;;;2.97;;
67997;SDS011;54773;53.388;-1.504;2023-07-28T00:34:13;5.60;;;2.90;;
67997;SDS011;54773;53.388;-1.504;2023-07-28T00:36:57;4.33;;;2.40;;
67997;SDS011;54773;53.388;-1.504;2023-07-28T00:39:41;4.70;;;2.60;;
67997;SDS011;54773;53.388;-1.504;2023-07-28T00:42:25;4.45;;;2.80;;
67997;SDS011;54773;53.388;-1.504;2023-07-28T00:45:08;5.05;;;2.60;;
67997;SDS011;54773;53.388;-1.504;2023-07-28T00:47:53;5.25;;;2.92;;
67997;SDS011;54773;53.388;-1.504;2023-07-28T00:50:39;5.78;;;2.45;;
67997;SDS011;54773;53.388;-1.504;2023-07-28T00:53:26;4.95;;;2.50;;
67997;SDS011;54773;53.388;-1.504;2023-07-28T00:56:11;4.78;;;2.40;;
67997;SDS011;54773;53.388;-1.504;2023-07-28T00:58:56;4.97;;;2.50;;
67997;SDS011;54773;53.388;-1.504;2023-07-28T01:01:40;6.20;;;2.60;;
67997;SDS011;54773;53.388;-1.504;2023-07-28T01:04:24;5.37;;;2.60;;
67997;SDS011;54773;53.388;-1.504;2023-07-28T01:07:20;4.80;;;2.50;;
67997;SDS011;54773;53.388;-1.504;2023-07-28T01:10:11;5.10;;;2.67;;
67997;SDS011;54773;53.388;-1.504;2023-07-28T01:13:00;5.28;;;2.80;;
67997;SDS011;54773;53.388;-1.504;2023-07-28T01:15:44;6.00;;;3.10;;
67997;SDS011;54773;53.388;-1.504;2023-07-28T01:18:28;4.85;;;3.08;;
67997;SDS011;54773;53.388;-1.504;2023-07-28T01:21:31;7.45;;;3.70;;
67997;SDS011;54773;53.388;-1.504;2023-07-28T01:27:26;7.68;;;3.83;;
67997;SDS011;54773;53.388;-1.504;2023-07-28T01:30:11;8.05;;;3.42;;
67997;SDS011;54773;53.388;-1.504;2023-07-28T01:32:55;6.82;;;3.45;;
67997;SDS011;54773;53.388;-1.504;2023-07-28T01:35:40;6.20;;;3.40;;
67997;SDS011;54773;53.388;-1.504;2023-07-28T01:38:24;7.57;;;3.65;;
67997;SDS011;54773;53.388;-1.504;2023-07-28T01:41:08;7.03;;;4.03;;
67997;SDS011;54773;53.388;-1.504;2023-07-28T01:43:52;7.55;;;3.35;;
67997;SDS011;54773;53.388;-1.504;2023-07-28T01:46:39;6.40;;;3.60;;
67997;SDS011;54773;53.388;-1.504;2023-07-28T01:49:23;7.25;;;3.25;;
67997;SDS011;54773;53.388;-1.504;2023-07-28T01:52:07;7.05;;;3.10;;
67997;SDS011;54773;53.388;-1.504;2023-07-28T01:54:51;5.78;;;3.05;;
67997;SDS011;54773;53.388;-1.504;2023-07-28T01:57:38;7.40;;;3.50;;
67997;SDS011;54773;53.388;-1.504;2023-07-28T02:00:23;7.85;;;3.42;;
67997;SDS011;54773;53.388;-1.504;2023-07-28T02:03:07;9.32;;;4.47;;
67997;SDS011;54773;53.388;-1.504;2023-07-28T02:05:51;7.20;;;3.75;;
67997;SDS011;54773;53.388;-1.504;2023-07-28T02:08:36;10.18;;;4.57;;
67997;SDS011;54773;53.388;-1.504;2023-07-28T02:11:20;9.50;;;4.68;;
67997;SDS011;54773;53.388;-1.504;2023-07-28T02:14:04;8.05;;;4.05;;
67997;SDS011;54773;53.388;-1.504;2023-07-28T02:16:48;9.23;;;4.45;;
67997;SDS011;54773;53.388;-1.504;2023-07-28T02:19:32;8.85;;;4.40;;
67997;SDS011;54773;53.388;-1.504;2023-07-28T02:22:16;7.90;;;4.10;;
67997;SDS011;54773;53.388;-1.504;2023-07-28T02:25:00;7.50;;;4.63;;
67997;SDS011;54773;53.388;-1.504;2023-07-28T02:27:45;10.48;;;5.30;;
67997;SDS011;54773;53.388;-1.504;2023-07-28T02:30:29;9.88;;;5.78;;
67997;SDS011;54773;53.388;-1.504;2023-07-28T02:33:13;12.23;;;6.23;;
67997;SDS011;54773;53.388;-1.504;2023-07-28T02:35:57;10.57;;;5.50;;
67997;SDS011;54773;53.388;-1.504;2023-07-28T02:38:41;10.73;;;6.07;;
67997;SDS011;54773;53.388;-1.504;2023-07-28T02:41:25;10.07;;;5.32;;
67997;SDS011;54773;53.388;-1.504;2023-07-28T02:44:09;11.07;;;5.47;;
67997;SDS011;54773;53.388;-1.504;2023-07-28T02:46:53;11.63;;;6.10;;
67997;SDS011;54773;53.388;-1.504;2023-07-28T02:49:37;9.98;;;5.25;;
67997;SDS011;54773;53.388;-1.504;2023-07-28T02:52:21;8.85;;;5.63;;
67997;SDS011;54773;53.388;-1.504;2023-07-28T02:55:05;10.67;;;5.37;;
67997;SDS011;54773;53.388;-1.504;2023-07-28T02:57:49;7.72;;;4.75;;
67997;SDS011;54773;53.388;-1.504;2023-07-28T03:00:33;8.20;;;4.80;;
67997;SDS011;54773;53.388;-1.504;2023-07-28T03:03:17;8.00;;;4.57;;
67997;SDS011;54773;53.388;-1.504;2023-07-28T03:06:01;8.37;;;4.73;;
67997;SDS011;54773;53.388;-1.504;2023-07-28T03:08:45;9.00;;;4.75;;
67997;SDS011;54773;53.388;-1.504;2023-07-28T03:11:28;7.50;;;4.55;;
67997;SDS011;54773;53.388;-1.504;2023-07-28T03:14:12;8.48;;;4.50;;
67997;SDS011;54773;53.388;-1.504;2023-07-28T03:16:56;7.45;;;4.70;;
67997;SDS011;54773;53.388;-1.504;2023-07-28T03:19:40;10.40;;;4.72;;
67997;SDS011;54773;53.388;-1.504;2023-07-28T03:22:24;7.10;;;4.60;;
67997;SDS011;54773;53.388;-1.504;2023-07-28T03:25:09;8.10;;;5.25;;
67997;SDS011;54773;53.388;-1.504;2023-07-28T03:27:53;9.63;;;6.47;;
67997;SDS011;54773;53.388;-1.504;2023-07-28T03:30:37;8.82;;;6.13;;
67997;SDS011;54773;53.388;-1.504;2023-07-28T03:33:21;9.65;;;5.25;;
67997;SDS011;54773;53.388;-1.504;2023-07-28T03:36:05;7.38;;;5.35;;
67997;SDS011;54773;53.388;-1.504;2023-07-28T03:38:48;7.77;;;4.80;;
67997;SDS011;54773;53.388;-1.504;2023-07-28T03:41:32;7.55;;;5.13;;
67997;SDS011;54773;53.388;-1.504;2023-07-28T03:44:16;9.33;;;4.60;;
67997;SDS011;54773;53.388;-1.504;2023-07-28T03:47:03;7.68;;;4.30;;
67997;SDS011;54773;53.388;-1.504;2023-07-28T03:49:47;8.38;;;4.75;;
67997;SDS011;54773;53.388;-1.504;2023-07-28T03:52:31;6.85;;;4.25;;
67997;SDS011;54773;53.388;-1.504;2023-07-28T03:55:15;8.63;;;4.45;;
67997;SDS011;54773;53.388;-1.504;2023-07-28T03:57:59;6.90;;;4.25;;
67997;SDS011;54773;53.388;-1.504;2023-07-28T04:00:43;6.90;;;3.83;;
67997;SDS011;54773;53.388;-1.504;2023-07-28T04:03:27;7.60;;;4.25;;
67997;SDS011;54773;53.388;-1.504;2023-07-28T04:06:12;8.93;;;4.25;;
67997;SDS011;54773;53.388;-1.504;2023-07-28T04:08:56;6.55;;;3.92;;
67997;SDS011;54773;53.388;-1.504;2023-07-28T04:11:40;6.77;;;4.30;;
67997;SDS011;54773;53.388;-1.504;2023-07-28T04:14:24;7.90;;;4.72;;
67997;SDS011;54773;53.388;-1.504;2023-07-28T04:17:08;7.28;;;4.50;;
67997;SDS011;54773;53.388;-1.504;2023-07-28T04:19:52;8.03;;;5.10;;
67997;SDS011;54773;53.388;-1.504;2023-07-28T04:22:36;9.27;;;4.93;;
67997;SDS011;54773;53.388;-1.504;2023-07-28T04:25:20;9.93;;;5.57;;
67997;SDS011;54773;53.388;-1.504;2023-07-28T04:28:07;11.37;;;5.87;;
67997;SDS011;54773;53.388;-1.504;2023-07-28T04:30:51;11.93;;;6.00;;
67997;SDS011;54773;53.388;-1.504;2023-07-28T04:33:35;9.43;;;5.45;;
67997;SDS011;54773;53.388;-1.504;2023-07-28T04:36:19;9.25;;;5.05;;
67997;SDS011;54773;53.388;-1.504;2023-07-28T04:39:03;12.43;;;5.78;;
67997;SDS011;54773;53.388;-1.504;2023-07-28T04:41:47;10.63;;;5.63;;
67997;SDS011;54773;53.388;-1.504;2023-07-28T04:44:31;15.47;;;6.40;;
67997;SDS011;54773;53.388;-1.504;2023-07-28T04:47:15;11.23;;;5.57;;
67997;SDS011;54773;53.388;-1.504;2023-07-28T04:49:59;9.98;;;5.90;;
67997;SDS011;54773;53.388;-1.504;2023-07-28T04:52:43;9.38;;;5.28;;
67997;SDS011;54773;53.388;-1.504;2023-07-28T04:55:26;9.33;;;4.87;;
67997;SDS011;54773;53.388;-1.504;2023-07-28T04:58:10;7.68;;;4.43;;
67997;SDS011;54773;53.388;-1.504;2023-07-28T05:00:54;8.73;;;5.00;;
67997;SDS011;54773;53.388;-1.504;2023-07-28T05:03:38;9.27;;;5.43;;
67997;SDS011;54773;53.388;-1.504;2023-07-28T05:06:22;10.10;;;5.70;;
67997;SDS011;54773;53.388;-1.504;2023-07-28T05:09:06;10.52;;;5.75;;
67997;SDS011;54773;53.388;-1.504;2023-07-28T05:11:50;12.23;;;7.07;;
67997;SDS011;54773;53.388;-1.504;2023-07-28T05:14:34;14.60;;;7.25;;
67997;SDS011;54773;53.388;-1.504;2023-07-28T05:17:18;11.93;;;6.65;;
67997;SDS011;54773;53.388;-1.504;2023-07-28T05:20:02;12.63;;;6.43;;
67997;SDS011;54773;53.388;-1.504;2023-07-28T05:22:46;13.43;;;7.35;;
67997;SDS011;54773;53.388;-1.504;2023-07-28T05:25:30;13.23;;;7.07;;
67997;SDS011;54773;53.388;-1.504;2023-07-28T05:28:14;11.73;;;5.93;;
67997;SDS011;54773;53.388;-1.504;2023-07-28T05:31:04;12.13;;;5.93;;
67997;SDS011;54773;53.388;-1.504;2023-07-28T05:33:49;13.63;;;6.35;;
67997;SDS011;54773;53.388;-1.504;2023-07-28T05:36:33;12.25;;;6.20;;
67997;SDS011;54773;53.388;-1.504;2023-07-28T05:39:17;11.57;;;5.95;;
67997;SDS011;54773;53.388;-1.504;2023-07-28T05:42:01;12.50;;;6.30;;
67997;SDS011;54773;53.388;-1.504;2023-07-28T05:44:45;11.95;;;6.32;;
67997;SDS011;54773;53.388;-1.504;2023-07-28T05:47:28;10.07;;;5.38;;
67997;SDS011;54773;53.388;-1.504;2023-07-28T05:50:12;10.70;;;5.88;;
67997;SDS011;54773;53.388;-1.504;2023-07-28T05:52:56;10.67;;;5.30;;
67997;SDS011;54773;53.388;-1.504;2023-07-28T05:55:40;9.75;;;5.30;;
67997;SDS011;54773;53.388;-1.504;2023-07-28T05:58:24;7.30;;;4.53;;
67997;SDS011;54773;53.388;-1.504;2023-07-28T06:01:08;9.18;;;5.72;;
67997;SDS011;54773;53.388;-1.504;2023-07-28T06:03:52;7.50;;;5.07;;
67997;SDS011;54773;53.388;-1.504;2023-07-28T06:06:39;7.80;;;4.90;;
67997;SDS011;54773;53.388;-1.504;2023-07-28T06:09:23;7.30;;;4.60;;
67997;SDS011;54773;53.388;-1.504;2023-07-28T06:12:07;8.27;;;4.60;;
67997;SDS011;54773;53.388;-1.504;2023-07-28T06:14:51;9.07;;;4.57;;
67997;SDS011;54773;53.388;-1.504;2023-07-28T06:17:35;7.85;;;4.70;;
67997;SDS011;54773;53.388;-1.504;2023-07-28T06:20:19;7.57;;;5.00;;
67997;SDS011;54773;53.388;-1.504;2023-07-28T06:23:03;7.32;;;4.22;;
67997;SDS011;54773;53.388;-1.504;2023-07-28T06:25:48;6.82;;;4.15;;
67997;SDS011;54773;53.388;-1.504;2023-07-28T06:28:32;6.78;;;3.78;;
67997;SDS011;54773;53.388;-1.504;2023-07-28T06:31:16;6.53;;;3.80;;
67997;SDS011;54773;53.388;-1.504;2023-07-28T06:34:00;7.03;;;4.13;;
67997;SDS011;54773;53.388;-1.504;2023-07-28T06:36:44;7.65;;;4.60;;
67997;SDS011;54773;53.388;-1.504;2023-07-28T06:39:29;9.35;;;5.78;;
67997;SDS011;54773;53.388;-1.504;2023-07-28T06:42:13;6.50;;;4.40;;
67997;SDS011;54773;53.388;-1.504;2023-07-28T06:44:58;7.72;;;4.07;;
67997;SDS011;54773;53.388;-1.504;2023-07-28T06:47:42;6.57;;;4.28;;
67997;SDS011;54773;53.388;-1.504;2023-07-28T06:50:26;6.15;;;3.50;;
67997;SDS011;54773;53.388;-1.504;2023-07-28T06:53:11;6.05;;;3.70;;
67997;SDS011;54773;53.388;-1.504;2023-07-28T06:55:58;6.25;;;3.90;;
67997;SDS011;54773;53.388;-1.504;2023-07-28T06:58:42;5.32;;;3.30;;
67997;SDS011;54773;53.388;-1.504;2023-07-28T07:01:26;5.63;;;2.97;;
67997;SDS011;54773;53.388;-1.504;2023-07-28T07:04:11;5.47;;;2.95;;
67997;SDS011;54773;53.388;-1.504;2023-07-28T07:06:55;7.05;;;3.22;;
67997;SDS011;54773;53.388;-1.504;2023-07-28T07:09:42;5.68;;;2.78;;
67997;SDS011;54773;53.388;-1.504;2023-07-28T07:12:26;4.97;;;2.83;;
67997;SDS011;54773;53.388;-1.504;2023-07-28T07:15:10;5.90;;;3.00;;
67997;SDS011;54773;53.388;-1.504;2023-07-28T07:17:55;5.13;;;3.30;;
67997;SDS011;54773;53.388;-1.504;2023-07-28T07:20:39;6.57;;;3.10;;
67997;SDS011;54773;53.388;-1.504;2023-07-28T07:23:24;5.05;;;3.10;;
67997;SDS011;54773;53.388;-1.504;2023-07-28T07:26:07;4.40;;;2.88;;
67997;SDS011;54773;53.388;-1.504;2023-07-28T07:31:36;5.32;;;3.17;;
67997;SDS011;54773;53.388;-1.504;2023-07-28T07:34:20;5.20;;;3.35;;
67997;SDS011;54773;53.388;-1.504;2023-07-28T07:37:05;6.20;;;3.38;;
67997;SDS011;54773;53.388;-1.504;2023-07-28T07:39:49;5.50;;;3.25;;
67997;SDS011;54773;53.388;-1.504;2023-07-28T07:42:46;8.20;;;3.38;;
67997;SDS011;54773;53.388;-1.504;2023-07-28T07:45:32;4.75;;;2.60;;
67997;SDS011;54773;53.388;-1.504;2023-07-28T07:48:17;5.03;;;2.67;;
67997;SDS011;54773;53.388;-1.504;2023-07-28T07:51:01;4.70;;;2.70;;
67997;SDS011;54773;53.388;-1.504;2023-07-28T07:53:45;5.03;;;2.58;;
67997;SDS011;54773;53.388;-1.504;2023-07-28T07:56:29;4.78;;;2.40;;
67997;SDS011;54773;53.388;-1.504;2023-07-28T07:59:13;4.78;;;2.67;;
67997;SDS011;54773;53.388;-1.504;2023-07-28T08:01:57;4.97;;;2.58;;
67997;SDS011;54773;53.388;-1.504;2023-07-28T08:04:47;5.75;;;2.65;;
67997;SDS011;54773;53.388;-1.504;2023-07-28T08:07:31;3.90;;;2.30;;
67997;SDS011;54773;53.388;-1.504;2023-07-28T08:10:16;3.75;;;2.08;;
67997;SDS011;54773;53.388;-1.504;2023-07-28T08:13:00;4.65;;;2.33;;
67997;SDS011;54773;53.388;-1.504;2023-07-28T08:15:45;4.95;;;2.28;;
67997;SDS011;54773;53.388;-1.504;2023-07-28T08:18:30;4.13;;;2.20;;
67997;SDS011;54773;53.388;-1.504;2023-07-28T08:21:14;4.53;;;2.30;;
67997;SDS011;54773;53.388;-1.504;2023-07-28T08:23:58;4.03;;;2.45;;
67997;SDS011;54773;53.388;-1.504;2023-07-28T08:29:27;4.00;;;2.07;;
67997;SDS011;54773;53.388;-1.504;2023-07-28T08:32:14;4.65;;;1.90;;
67997;SDS011;54773;53.388;-1.504;2023-07-28T08:34:58;4.13;;;2.20;;
67997;SDS011;54773;53.388;-1.504;2023-07-28T08:37:42;5.60;;;2.00;;
67997;SDS011;54773;53.388;-1.504;2023-07-28T08:40:27;3.35;;;1.80;;
67997;SDS011;54773;53.388;-1.504;2023-07-28T08:43:12;3.72;;;1.70;;
67997;SDS011;54773;53.388;-1.504;2023-07-28T08:45:57;3.70;;;1.80;;
67997;SDS011;54773;53.388;-1.504;2023-07-28T08:48:42;3.67;;;1.80;;
67997;SDS011;54773;53.388;-1.504;2023-07-28T08:51:26;3.72;;;1.52;;
67997;SDS011;54773;53.388;-1.504;2023-07-28T08:54:10;4.82;;;1.85;;
67997;SDS011;54773;53.388;-1.504;2023-07-28T08:59:41;4.00;;;2.17;;
67997;SDS011;54773;53.388;-1.504;2023-07-28T09:02:30;4.55;;;2.03;;
67997;SDS011;54773;53.388;-1.504;2023-07-28T09:05:21;4.35;;;2.13;;
67997;SDS011;54773;53.388;-1.504;2023-07-28T09:08:07;4.22;;;1.92;;
67997;SDS011;54773;53.388;-1.504;2023-07-28T09:10:52;5.68;;;2.60;;
67997;SDS011;54773;53.388;-1.504;2023-07-28T09:13:38;4.97;;;2.47;;
67997;SDS011;54773;53.388;-1.504;2023-07-28T09:16:25;5.10;;;2.60;;
67997;SDS011;54773;53.388;-1.504;2023-07-28T09:19:10;3.55;;;1.90;;
67997;SDS011;54773;53.388;-1.504;2023-07-28T09:21:58;3.55;;;1.90;;
67997;SDS011;54773;53.388;-1.504;2023-07-28T09:24:44;3.72;;;1.88;;
67997;SDS011;54773;53.388;-1.504;2023-07-28T09:27:28;3.30;;;2.00;;
67997;SDS011;54773;53.388;-1.504;2023-07-28T09:30:13;3.85;;;1.75;;
67997;SDS011;54773;53.388;-1.504;2023-07-28T09:32:59;2.85;;;1.40;;
67997;SDS011;54773;53.388;-1.504;2023-07-28T09:35:49;3.95;;;1.45;;
67997;SDS011;54773;53.388;-1.504;2023-07-28T09:38:38;3.13;;;1.75;;
67997;SDS011;54773;53.388;-1.504;2023-07-28T09:41:25;3.08;;;1.40;;
67997;SDS011;54773;53.388;-1.504;2023-07-28T09:44:09;2.60;;;1.20;;
67997;SDS011;54773;53.388;-1.504;2023-07-28T09:46:54;4.00;;;1.70;;
67997;SDS011;54773;53.388;-1.504;2023-07-28T09:49:40;3.75;;;1.60;;
67997;SDS011;54773;53.388;-1.504;2023-07-28T09:52:26;3.17;;;1.40;;
67997;SDS011;54773;53.388;-1.504;2023-07-28T09:55:15;3.33;;;1.42;;
67997;SDS011;54773;53.388;-1.504;2023-07-28T09:58:04;3.20;;;1.55;;
67997;SDS011;54773;53.388;-1.504;2023-07-28T10:00:51;4.50;;;2.00;;
67997;SDS011;54773;53.388;-1.504;2023-07-28T10:03:36;3.38;;;1.65;;
67997;SDS011;54773;53.388;-1.504;2023-07-28T10:06:21;3.97;;;1.70;;
67997;SDS011;54773;53.388;-1.504;2023-07-28T10:09:08;3.78;;;1.45;;
67997;SDS011;54773;53.388;-1.504;2023-07-28T10:11:52;3.80;;;1.75;;
67997;SDS011;54773;53.388;-1.504;2023-07-28T10:14:37;4.43;;;1.67;;
67997;SDS011;54773;53.388;-1.504;2023-07-28T10:17:22;3.83;;;1.95;;
67997;SDS011;54773;53.388;-1.504;2023-07-28T10:20:28;3.97;;;2.00;;
67997;SDS011;54773;53.388;-1.504;2023-07-28T10:23:21;4.28;;;2.30;;
67997;SDS011;54773;53.388;-1.504;2023-07-28T10:26:06;4.10;;;1.70;;
67997;SDS011;54773;53.388;-1.504;2023-07-28T10:28:50;3.13;;;1.50;;
67997;SDS011;54773;53.388;-1.504;2023-07-28T10:31:35;3.97;;;1.40;;
67997;SDS011;54773;53.388;-1.504;2023-07-28T10:34:20;2.85;;;1.30;;
67997;SDS011;54773;53.388;-1.504;2023-07-28T10:37:05;3.13;;;1.35;;
67997;SDS011;54773;53.388;-1.504;2023-07-28T10:40:21;3.47;;;1.40;;
67997;SDS011;54773;53.388;-1.504;2023-07-28T10:43:14;3.50;;;1.38;;
67997;SDS011;54773;53.388;-1.504;2023-07-28T10:45:59;4.57;;;1.40;;
67997;SDS011;54773;53.388;-1.504;2023-07-28T10:48:45;4.32;;;1.55;;
67997;SDS011;54773;53.388;-1.504;2023-07-28T10:51:30;3.75;;;1.30;;
67997;SDS011;54773;53.388;-1.504;2023-07-28T10:54:16;2.83;;;1.25;;
67997;SDS011;54773;53.388;-1.504;2023-07-28T10:57:03;4.30;;;1.42;;
67997;SDS011;54773;53.388;-1.504;2023-07-28T10:59:50;4.45;;;1.52;;
67997;SDS011;54773;53.388;-1.504;2023-07-28T11:02:37;2.78;;;1.30;;
67997;SDS011;54773;53.388;-1.504;2023-07-28T11:05:34;4.18;;;1.40;;
67997;SDS011;54773;53.388;-1.504;2023-07-28T11:08:18;3.30;;;1.35;;
67997;SDS011;54773;53.388;-1.504;2023-07-28T11:11:03;3.35;;;1.48;;
67997;SDS011;54773;53.388;-1.504;2023-07-28T11:13:48;3.33;;;1.50;;
67997;SDS011;54773;53.388;-1.504;2023-07-28T11:16:36;3.17;;;1.55;;
67997;SDS011;54773;53.388;-1.504;2023-07-28T11:19:22;4.40;;;1.40;;
67997;SDS011;54773;53.388;-1.504;2023-07-28T11:22:09;3.22;;;1.55;;
67997;SDS011;54773;53.388;-1.504;2023-07-28T11:24:53;3.00;;;1.42;;
67997;SDS011;54773;53.388;-1.504;2023-07-28T11:27:38;4.13;;;1.40;;
67997;SDS011;54773;53.388;-1.504;2023-07-28T11:30:26;2.95;;;1.50;;
67997;SDS011;54773;53.388;-1.504;2023-07-28T11:33:10;3.63;;;1.50;;
67997;SDS011;54773;53.388;-1.504;2023-07-28T11:35:57;7.45;;;2.10;;
67997;SDS011;54773;53.388;-1.504;2023-07-28T11:38:41;3.33;;;1.60;;
67997;SDS011;54773;53.388;-1.504;2023-07-28T11:41:28;4.53;;;2.00;;
67997;SDS011;54773;53.388;-1.504;2023-07-28T11:44:12;4.80;;;2.00;;
